Eel River - 17nm Wsw Of Eureka, Ca (46022) Wave Buoy

1:50pm - Wed 25th Nov 2015 All times are PST. -8 hours from GMT.

  • Sig Wave height 13.4ft
  • Swell Direction
  • Peak Period 12s
  • Average Period 8s
  • Wind
    22mph, 27mph gusts
  • Sea Temp 52°f
  • Air Temp 50°f
  • Sea Pressure 1015.7mb
  • Eel River - 17nm Wsw Of Eureka, Ca
  • Eel River - 17nm Wsw Of Eureka, Ca

More Historic Weather Station data

Upgrade to MSW Pro to gain access to the past 30 days of data for over 8000 Wavebouys and Weather Stations around the globe.

Join Pro

Comparision Forecast

View Surf forecast
Wed 11/25 1:50pm 13.5ft 12s 8s 22 27 mph 1015.7mb 52f 50f
12:50pm 13ft 12s 8s 22 27 mph 1015.9mb 52f 50f
11:50am 12ft 12s 8s 18 25 mph 1016.2mb 53f 49f
10:50am 11.5ft 12s 8s 25 29 mph 1016.2mb 53f 49f
9:50am 13ft 13s 8s 27 31 mph 1015.9mb 53f 50f
8:50am 11ft 14s 8s 25 29 mph 1015.9mb 53f 50f
6:50am 12ft 15s 9s 22 27 mph 1015.9mb 54f 50f
5:50am 14ft 15s 9s 25 29 mph 1015.5mb 54f 51f
4:50am 15.5ft 14s 9s 25 29 mph 1015.4mb 54f 50f
3:50am 15ft 14s 9s 22 29 mph 1015.2mb 54f 51f
2:50am 13.5ft 15s 9s 25 29 mph 1015.7mb 54f 51f
1:50am 14.5ft 14s 9s 20 25 mph 1015.6mb 54f 50f
12:50am 17ft 13s 9s 20 25 mph 1015.4mb 54f 50f
Tue 11/24 11:50pm 20ft 15s 11s 20 25 mph 1015.2mb 54f 50f
10:50pm 23ft 15s 11s 13 18 mph 1015mb 54f 49f
9:50pm 18.5ft 14s 10s 16 20 mph 1014.9mb 54f 48f
8:50pm 18.5ft 15s 11s 7 13 mph 1014mb 54f 46f
7:50pm 16.5ft 12s 10s 20 25 mph 1012.7mb 54f 45f
6:50pm 18.5ft 14s 10s 11 16 mph 1011.7mb 54f 47f
5:50pm 15.5ft 13s 10s 4 9 mph 1011mb 54f 47f
4:50pm 15ft 12s 9s 13 20 mph 1010.8mb 54f 49f
3:50pm 14ft 12s 9s 11 16 mph 1011mb 55f 50f
2:50pm 16ft 13s 10s 4 11 mph 1011.3mb 55f 49f
1:50pm 13.5ft 13s 9s 9 13 mph 1011.7mb 55f 49f
12:50pm 13ft 14s 8s 9 11 mph 1012.1mb 55f 48f
11:50am 12ft 13s 8s 22 31 mph 1012mb 54f 51f
10:50am 10.5ft 14s 7s 18 22 mph 1012.5mb 54f 51f
9:50am 10.5ft 8s 7s 16 20 mph 1012.7mb 54f 51f
8:50am 10ft 13s 7s 22 29 mph 1012.1mb 54f 51f
7:50am 9.5ft 7s 7s 20 22 mph 1011.7mb 54f 49f
6:50am 8.5ft 6s 6s 20 25 mph 1011.5mb 55f 49f
5:50am 8ft 6s 6s 27 31 mph 1010.7mb 55f 49f
4:50am 7ft 14s 6s 34 40 mph 1010.1mb 55f 49f
3:50am 7ft 13s 7s 20 27 mph 1009.2mb 55f 52f
2:50am 8ft 14s 8s 22 27 mph 1009.3mb 55f 53f
1:50am 6ft 13s 8s 20 25 mph 1009.8mb 55f 54f
12:50am 7ft 13s 8s 22 27 mph 1010.4mb 55f 54f
Mon 11/23 11:50pm 7ft 13s 9s 18 22 mph 1011.7mb 55f 54f
10:50pm 6.5ft 14s 10s 18 20 mph 1011.6mb 55f 53f
9:50pm 6ft 12s 10s 11 13 mph 1012.3mb 55f 55f
8:50pm 6.5ft 12s 11s 7 9 mph 1012.6mb 55f 55f
7:50pm 6.5ft 13s 11s 7 9 mph 1012.6mb 55f 55f
6:50pm 7.5ft 14s 11s 7 9 mph 1012.8mb 56f 55f
5:50pm 7ft 13s 11s 4 7 mph 1013mb 56f 55f
4:50pm 8.5ft 14s 12s 4 7 mph 1013.8mb 56f 53f
3:50pm 6ft 15s 11s 2 4 mph 1014.2mb 56f 51f
2:50pm 7ft 15s 11s 2
1013.9mb 56f 50f
1:50pm 7.5ft 15s 11s 4 7 mph 1014mb 56f 49f
12:50pm 6ft 15s 11s 7 9 mph 1014.1mb 56f 50f
11:50am 6ft 15s 11s 4 7 mph 1014.3mb 56f 52f
10:50am 5ft 16s 11s 2 4 mph 1015mb 56f 53f
9:50am 5.5ft 16s 11s  -  4 mph 1014.6mb 56f 50f
8:50am 4.5ft 15s 10s 2 4 mph 1014.5mb 56f 49f
7:50am 4.5ft 15s 10s 9 13 mph 1013.8mb 56f 49f
6:50am 4.5ft 12s 9s 7 9 mph 1013.9mb 56f 49f
5:50am 4.5ft 13s 9s 9 11 mph 1013.6mb 56f 50f
4:50am 4.5ft 11s 9s 4 7 mph 1013.8mb 56f 51f
3:50am 4.5ft 16s 9s 4 7 mph 1013.9mb 56f 51f
2:50am 4ft 13s 8s 4 7 mph 1014.2mb 56f 50f
1:50am 4ft 16s 8s 4 7 mph 1014.2mb 56f 50f
12:50am 3.5ft 12s 7s 4 7 mph 1014mb 56f 50f
Sun 11/22 11:50pm 4ft 17s 8s 4 7 mph 1014.2mb 56f 51f
10:50pm 4ft 17s 8s 4 7 mph 1014.3mb 56f 51f
9:50pm 4ft 12s 8s 2 4 mph 1014.5mb 56f 50f
8:50pm 3.5ft 12s 8s 2 7 mph 1014.4mb 56f 52f
7:50pm 3.5ft 14s 7s 2 4 mph 1014.4mb 56f 52f
6:50pm 3.5ft 9s 7s 4 7 mph 1014.6mb 56f 53f
5:50pm 3.5ft 10s 7s 2
1014.8mb 56f 54f
4:50pm 3.5ft 6s 7s 2
1014.7mb 56f 55f
3:50pm 3.5ft 10s 7s 4 7 mph 1015.1mb 56f 54f
2:50pm 3.5ft 11s 7s 4 7 mph 1015.3mb 56f 52f
1:50pm 3.5ft 9s 7s 2 4 mph 1015.1mb 56f 52f
12:50pm 3.5ft 11s 7s 2
1015.8mb 56f 52f
11:50am 3.5ft 11s 7s  -  2 mph 1016.7mb 56f 51f
10:50am 3.5ft 8s 7s 2 4 mph 1017.4mb 56f 51f
9:50am 3.5ft 11s 7s 2 4 mph 1017.5mb 56f 51f
8:50am 3.5ft 11s 7s 2
1017.6mb 56f 51f
7:50am 3.5ft 11s 7s 2 4 mph 1017mb 56f 50f
6:50am 3.5ft 11s 7s 2 4 mph 1016.9mb 56f 49f
5:50am 3.5ft 12s 7s 2 4 mph 1017.1mb 55f 51f
4:50am 3.5ft 12s 6s 7
1017.1mb 55f 51f
3:50am 3.5ft 10s 6s 7 11 mph 1017.3mb 55f 51f
2:50am 4ft 12s 6s 7 11 mph 1017.8mb 55f 51f
1:50am 4ft 9s 6s 4 7 mph 1017.6mb 55f 51f
12:50am 3.5ft 9s 6s 7 9 mph 1017.8mb 55f 51f
Sat 11/21 11:50pm 4ft 9s 7s 4 7 mph 1018.1mb 55f 51f